Ersov, Russia
Current Conditions -  °F | °C
As of 6:30 PM on Thursday 30 Oct 2014 (Local Time) from UWSS Reporting Station
Overcast Overcast  
Wind Chill: 41°   Ceiling: 3000
Heat Index: 46°   Visibility: 6mi
Dew Point: 32°   Wind: 11mph
Humidity: 57%   Direction: 190°S
Pressure: 30.24"   Gusts: NA
Location:  51.37°N, 48.3°E
Report Text: UWSS 301530Z 19005MPS 9999 BKN030 OVC100 08/00 Q1024 120///60NOSIG RMK QFE756
Loading
Personal Weather Stations






























Interactive Weather Map
Tropical Storm Tracking
New forecast layout! Learn more

10-Day Weather Forecast

Advertisements
Track Severe Weather on mobile